createdAt,value
2023-01-03T00:14:30.144Z,10.88
2023-01-03T00:29:32.509Z,10.64
2023-01-03T00:44:34.508Z,10.55
2023-01-03T00:59:36.464Z,10.48
2023-01-03T01:14:38.551Z,10.61
2023-01-03T01:29:40.705Z,10.54
2023-01-03T01:44:52.503Z,10.33
2023-01-03T01:59:54.544Z,10.45
2023-01-03T02:14:56.583Z,10.40
2023-01-03T02:30:30.274Z,10.10
2023-01-03T02:46:11.117Z,10.09
2023-01-03T03:01:14.812Z,10.03
2023-01-03T03:16:48.923Z,9.92
2023-01-03T03:31:52.085Z,9.55
2023-01-03T03:47:04.486Z,9.08
2023-01-03T04:02:08.705Z,9.03
2023-01-03T04:17:11.026Z,8.65
2023-01-03T04:32:13.105Z,8.55
2023-01-03T04:47:15.246Z,8.11
2023-01-03T05:02:17.443Z,7.75
2023-01-03T05:17:21.037Z,7.45
2023-01-03T05:32:25.306Z,7.53
2023-01-03T05:47:27.329Z,7.45
2023-01-03T06:02:29.368Z,7.70
2023-01-03T06:17:49.865Z,7.80
2023-01-03T06:32:51.692Z,7.59
2023-01-03T06:48:12.178Z,7.60
2023-01-03T07:03:14.023Z,7.76
2023-01-03T07:18:15.995Z,7.59
2023-01-03T07:33:18.909Z,7.56
2023-01-03T07:48:21.105Z,7.46
2023-01-03T08:03:23.088Z,7.79
2023-01-03T08:18:28.910Z,7.96
2023-01-03T08:33:38.636Z,7.90
2023-01-03T08:48:41.065Z,7.58
2023-01-03T09:03:43.325Z,7.85
2023-01-03T09:18:45.556Z,8.13
2023-01-03T09:33:47.527Z,7.97
2023-01-03T09:48:50.356Z,8.18
2023-01-03T10:04:41.764Z,8.18
2023-01-03T10:19:49.467Z,7.76
2023-01-03T10:35:16.061Z,7.34
2023-01-03T10:50:23.729Z,7.30
2023-01-03T11:05:27.353Z,7.12
2023-01-03T11:20:59.880Z,6.90
2023-01-03T11:36:29.103Z,7.11
2023-01-03T11:51:46.741Z,7.79
2023-01-03T12:22:39.315Z,7.85
2023-01-03T12:37:41.953Z,7.67
2023-01-03T12:52:47.483Z,7.53
2023-01-03T13:08:05.304Z,7.73
2023-01-03T13:23:07.205Z,7.65
2023-01-03T13:38:29.543Z,7.36
2023-01-03T13:53:37.905Z,7.11
2023-01-03T14:08:59.064Z,6.66
2023-01-03T14:24:02.154Z,6.43
2023-01-03T14:39:05.544Z,6.46
2023-01-03T14:54:07.665Z,6.08
2023-01-03T15:09:22.701Z,6.03
2023-01-03T15:24:24.785Z,6.18
2023-01-03T15:39:38.703Z,6.17
2023-01-03T15:54:45.211Z,6.18
2023-01-03T16:09:47.301Z,6.08
2023-01-03T16:24:49.243Z,5.98
2023-01-03T16:39:51.222Z,5.94
2023-01-03T16:54:54.452Z,5.93
2023-01-03T17:09:56.388Z,5.77
2023-01-03T17:24:58.394Z,5.69
2023-01-03T17:40:00.759Z,5.72
2023-01-03T17:55:03.726Z,5.74
2023-01-03T18:10:06.906Z,5.70
2023-01-03T18:25:24.272Z,5.63
2023-01-03T18:40:30.732Z,5.50
2023-01-03T18:55:35.215Z,5.00
2023-01-03T19:10:37.225Z,4.56
2023-01-03T19:25:39.185Z,4.83
2023-01-03T19:40:44.912Z,4.94
2023-01-03T19:55:49.070Z,4.95
2023-01-03T20:10:52.727Z,4.90
2023-01-03T20:25:54.865Z,4.90
2023-01-03T20:40:57.231Z,4.94
2023-01-03T20:55:59.344Z,5.01
2023-01-03T21:11:01.500Z,5.05
2023-01-03T21:26:03.464Z,5.14
2023-01-03T21:41:05.525Z,5.15
2023-01-03T21:56:15.312Z,5.15
2023-01-03T22:11:17.365Z,5.14
2023-01-03T22:26:19.283Z,5.15
2023-01-03T22:41:21.235Z,5.05
2023-01-03T22:56:23.207Z,5.04
2023-01-03T23:11:45.929Z,4.80
2023-01-03T23:26:48.277Z,4.39
2023-01-03T23:41:50.283Z,3.88
2023-01-03T23:56:52.283Z,3.50
